Time;durP1;ratioP1;P1;durP2;ratioP2;P2;SDS_P1;SDS_P2;PMS_P1;PMS_P2;Temp;Humidity;BMP_temperature;BMP_pressure;BME280_temperature;BME280_humidity;BME280_pressure;Samples;Min_cycle;Max_cycle;Signal;HPM_P1;HPM_P2
2022/02/11 00:07:59;;;;;;;;;;;17.10;65.00;;;;;;5055551;28;20525;-27
2022/02/11 00:10:25;;;;;;;2.40;2.20;;;17.10;65.00;;;;;;5054304;28;19951;-28
2022/02/11 00:12:51;;;;;;;2.47;2.28;;;17.10;65.10;;;;;;5063437;28;20056;-27
2022/02/11 00:18:01;;;;;;;;;;;17.10;65.10;;;;;;5055387;28;20417;-28
2022/02/11 00:20:27;;;;;;;2.40;2.20;;;17.00;65.20;;;;;;5070991;28;19916;-27
2022/02/11 00:22:53;;;;;;;2.13;2.03;;;17.00;65.10;;;;;;5074236;28;20103;-28
2022/02/11 00:25:19;;;;;;;1.55;1.45;;;17.00;65.10;;;;;;5073862;28;20151;-27
2022/02/11 00:33:26;;;;;;;2.30;2.20;;;17.00;65.40;;;;;;5063145;28;20071;-27
2022/02/11 00:36:06;;;;;;;2.00;1.90;;;16.90;65.10;;;;;;5054872;28;20051;-27
2022/02/11 00:47:06;;;;;;;2.00;1.77;;;16.90;65.30;;;;;;5072364;28;20050;-27
2022/02/11 01:03:13;;;;;;;1.85;1.75;;;16.80;65.30;;;;;;5072287;28;20043;-27
2022/02/11 01:05:39;;;;;;;2.30;2.20;;;16.80;65.40;;;;;;5062024;28;20051;-27
2022/02/11 01:08:04;;;;;;;1.88;1.77;;;16.80;65.40;;;;;;5068956;28;20041;-27
2022/02/11 01:10:32;;;;;;;2.15;2.05;;;16.80;65.50;;;;;;5053317;28;20087;-27
2022/02/11 01:12:58;;;;;;;1.90;1.80;;;16.70;65.50;;;;;;5054083;28;20045;-27
2022/02/11 01:15:25;;;;;;;1.85;1.70;;;16.80;65.30;;;;;;5054497;28;20044;-27
2022/02/11 01:17:55;;;;;;;2.30;2.10;;;16.80;65.20;;;;;;5054300;28;20049;-28
2022/02/11 01:20:30;;;;;;;2.33;2.13;;;16.80;65.10;;;;;;5053510;28;20075;-27
2022/02/11 01:26:04;;;;;;;1.73;1.63;;;16.80;65.00;;;;;;5054121;28;20500;-27
2022/02/11 01:28:49;;;;;;;2.50;2.30;;;16.80;65.00;;;;;;5070443;28;20103;-27
2022/02/11 01:31:25;;;;;;;1.83;1.73;;;16.80;65.20;;;;;;5071176;28;20055;-28
2022/02/11 02:00:37;;;;;;;1.65;1.55;;;16.80;65.00;;;;;;5069110;28;20051;-27
2022/02/11 02:05:56;;;;;;;1.55;1.45;;;16.70;65.00;;;;;;5066844;28;20098;-27
2022/02/11 02:27:11;;;;;;;;;;;16.70;64.80;;;;;;5076132;28;20135;-27
2022/02/11 02:50:12;;;;;;;1.38;1.30;;;16.70;64.80;;;;;;5075112;28;20071;-27
2022/02/11 02:56:56;;;;;;;1.63;1.52;;;16.80;64.60;;;;;;5055865;28;20076;-27
2022/02/11 02:59:37;;;;;;;1.88;1.48;;;16.70;64.50;;;;;;5061488;28;20048;-27
2022/02/11 03:34:50;;;;;;;1.20;1.10;;;16.60;64.70;;;;;;5054784;28;20048;-27
2022/02/11 04:53:42;;;;;;;1.10;1.00;;;16.40;64.80;;;;;;5057805;28;20083;-27
2022/02/11 04:55:47;;;;;;;1.10;1.10;;;16.50;64.80;;;;;;5066578;28;20044;-27
2022/02/11 05:00:58;;;;;;;1.20;1.10;;;16.40;64.80;;;;;;5057132;28;20075;-27
2022/02/11 05:03:23;;;;;;;1.30;1.20;;;16.40;64.60;;;;;;5055395;28;20041;-27
2022/02/11 05:05:49;;;;;;;0.90;0.90;;;16.40;64.60;;;;;;5055003;28;20144;-27
2022/02/11 05:08:24;;;;;;;1.25;1.15;;;16.50;64.80;;;;;;5054652;28;20049;-27
2022/02/11 05:10:54;;;;;;;1.20;1.10;;;16.40;64.80;;;;;;5072629;28;20048;-27
2022/02/11 05:13:20;;;;;;;1.15;1.05;;;16.40;64.80;;;;;;5075774;28;20037;-27
2022/02/11 05:15:45;;;;;;;1.30;1.20;;;16.40;64.80;;;;;;5075113;28;20044;-27
2022/02/11 05:18:11;;;;;;;1.13;1.02;;;16.40;64.90;;;;;;5059499;28;20041;-27
2022/02/11 05:20:37;;;;;;;1.20;1.10;;;16.40;64.90;;;;;;5057710;28;20049;-27
2022/02/11 05:23:06;;;;;;;1.08;1.00;;;16.40;64.90;;;;;;5059133;28;20037;-27
2022/02/11 05:25:37;;;;;;;0.85;0.85;;;16.40;64.80;;;;;;5073035;28;20040;-27
2022/02/11 05:28:04;;;;;;;0.70;0.70;;;16.30;64.70;;;;;;5057628;28;20044;-27
2022/02/11 05:30:29;;;;;;;1.25;1.15;;;16.40;64.90;;;;;;5061271;28;20064;-27
2022/02/11 05:32:55;;;;;;;0.90;0.90;;;16.40;64.60;;;;;;5067652;28;20055;-27
2022/02/11 05:35:21;;;;;;;0.70;0.70;;;16.30;64.90;;;;;;5067191;28;20420;-27
2022/02/11 05:37:48;;;;;;;0.80;0.80;;;16.40;64.70;;;;;;5059974;28;20045;-27
2022/02/11 05:40:14;;;;;;;1.20;1.10;;;16.40;65.30;;;;;;5073898;28;20131;-27
2022/02/11 05:42:39;;;;;;;1.20;1.17;;;16.40;64.60;;;;;;5070637;28;20072;-26
2022/02/11 05:45:05;;;;;;;1.08;0.98;;;16.40;64.60;;;;;;5070196;28;20036;-28
2022/02/11 05:47:31;;;;;;;1.10;1.00;;;16.30;64.60;;;;;;5070603;28;20040;-27
2022/02/11 05:49:57;;;;;;;1.13;1.02;;;16.40;64.50;;;;;;5072097;28;20044;-27
2022/02/11 05:52:22;;;;;;;0.80;0.80;;;16.40;64.60;;;;;;5073699;28;20061;-27
2022/02/11 05:54:48;;;;;;;0.80;0.80;;;16.40;64.60;;;;;;5069949;28;20044;-27
2022/02/11 05:57:13;;;;;;;0.88;0.88;;;16.30;64.70;;;;;;5074614;28;20472;-27
2022/02/11 05:59:39;;;;;;;1.15;1.05;;;16.30;64.70;;;;;;5069352;28;20112;-27
2022/02/11 06:02:05;;;;;;;0.85;0.85;;;16.30;64.50;;;;;;5074099;28;20067;-27
2022/02/11 06:04:30;;;;;;;0.80;0.80;;;16.30;64.70;;;;;;5056974;28;20056;-27
2022/02/11 06:06:58;;;;;;;1.02;0.90;;;16.30;64.50;;;;;;5064410;28;20516;-27
2022/02/11 06:09:24;;;;;;;1.25;1.15;;;16.30;64.50;;;;;;5060983;28;20049;-27
2022/02/11 06:11:50;;;;;;;0.90;0.90;;;16.30;64.40;;;;;;5076623;28;20082;-27
2022/02/11 06:14:17;;;;;;;1.05;0.95;;;16.30;64.30;;;;;;5076108;28;20051;-28
2022/02/11 06:16:43;;;;;;;0.90;0.85;;;16.30;64.40;;;;;;5059896;28;20041;-27
2022/02/11 06:19:08;;;;;;;0.95;0.95;;;16.30;64.50;;;;;;5073888;28;20047;-27
2022/02/11 06:21:34;;;;;;;0.80;0.80;;;16.30;64.50;;;;;;5071789;28;20040;-27
2022/02/11 06:24:00;;;;;;;1.42;1.08;;;16.30;64.50;;;;;;5073165;28;20497;-27
2022/02/11 06:26:25;;;;;;;0.70;0.70;;;16.30;64.40;;;;;;5074601;28;20626;-27
2022/02/11 06:28:51;;;;;;;0.90;0.90;;;16.30;64.50;;;;;;5070288;28;20048;-27
2022/02/11 06:31:18;;;;;;;0.80;0.80;;;16.30;64.70;;;;;;5073610;28;20512;-27
2022/02/11 06:33:43;;;;;;;0.95;0.70;;;16.20;64.70;;;;;;5071979;28;20049;-27
2022/02/11 06:36:09;;;;;;;1.10;1.00;;;16.30;64.60;;;;;;5073408;28;20143;-27
2022/02/11 06:38:35;;;;;;;0.80;0.80;;;16.30;64.60;;;;;;5068741;28;20044;-27
2022/02/11 06:41:00;;;;;;;1.02;0.73;;;16.20;64.40;;;;;;5073991;28;20396;-27
2022/02/11 06:43:26;;;;;;;1.00;0.70;;;16.30;64.50;;;;;;5069783;28;20110;-27
2022/02/11 06:45:52;;;;;;;0.63;0.63;;;16.30;64.30;;;;;;5069878;28;20440;-27
2022/02/11 06:48:21;;;;;;;0.90;0.90;;;16.30;64.20;;;;;;5073650;28;20150;-27
2022/02/11 06:50:47;;;;;;;0.90;0.90;;;16.30;64.30;;;;;;5072613;28;20045;-27
2022/02/11 06:53:14;;;;;;;0.70;0.70;;;16.20;64.20;;;;;;5070452;28;20044;-27
2022/02/11 06:55:40;;;;;;;0.57;0.57;;;16.20;64.10;;;;;;5072055;28;20037;-26
2022/02/11 06:58:06;;;;;;;0.63;0.63;;;16.30;64.20;;;;;;5073316;28;20048;-27
2022/02/11 07:00:31;;;;;;;0.70;0.70;;;16.30;64.30;;;;;;5073101;28;20067;-32
2022/02/11 07:02:57;;;;;;;0.70;0.70;;;16.30;64.30;;;;;;5070197;28;21030;-27
2022/02/11 07:05:23;;;;;;;0.63;0.63;;;16.30;64.30;;;;;;5072164;28;20093;-27
2022/02/11 07:07:49;;;;;;;0.80;0.80;;;16.20;64.10;;;;;;5073710;28;21824;-27
2022/02/11 07:10:15;;;;;;;0.85;0.85;;;16.20;64.30;;;;;;5070606;28;20067;-27
2022/02/11 07:12:40;;;;;;;0.70;0.70;;;16.20;64.20;;;;;;5070202;28;20048;-28
2022/02/11 07:15:06;;;;;;;0.65;0.65;;;16.20;64.80;;;;;;5070984;28;20128;-27
2022/02/11 07:17:33;;;;;;;1.00;0.90;;;16.30;64.20;;;;;;5071922;28;20075;-27
2022/02/11 07:19:59;;;;;;;0.57;0.55;;;16.20;64.20;;;;;;5074029;28;20389;-27
2022/02/11 07:22:25;;;;;;;0.82;0.82;;;16.20;64.30;;;;;;5070446;28;20093;-28
2022/02/11 07:24:53;;;;;;;1.00;0.90;;;16.20;65.00;;;;;;5071126;28;20101;-27
2022/02/11 07:27:19;;;;;;;0.85;0.85;;;16.20;64.20;;;;;;5068318;28;20424;-27
2022/02/11 07:29:44;;;;;;;0.80;0.80;;;16.20;64.20;;;;;;5069788;28;20732;-27
2022/02/11 07:32:10;;;;;;;1.05;0.98;;;16.20;64.20;;;;;;5072464;28;20057;-28
2022/02/11 07:34:37;;;;;;;0.80;0.80;;;16.20;64.40;;;;;;5072427;28;20167;-29
2022/02/11 07:37:04;;;;;;;0.60;0.60;;;16.20;64.40;;;;;;5065154;28;20048;-27
2022/02/11 07:39:30;;;;;;;1.45;0.70;;;16.10;64.40;;;;;;5073384;28;20037;-28
2022/02/11 07:41:56;;;;;;;0.85;0.80;;;16.10;64.50;;;;;;5073730;28;20064;-27
2022/02/11 07:44:22;;;;;;;0.70;0.70;;;16.10;64.60;;;;;;5075071;28;20044;-27
2022/02/11 07:46:48;;;;;;;0.55;0.55;;;16.10;64.60;;;;;;5066956;28;20069;-28
2022/02/11 07:49:14;;;;;;;0.80;0.80;;;16.10;64.40;;;;;;5055336;28;20048;-28
2022/02/11 07:51:40;;;;;;;1.00;0.90;;;16.10;64.30;;;;;;5055338;28;20102;-28
2022/02/11 07:54:05;;;;;;;0.98;0.77;;;16.10;64.40;;;;;;5060483;28;20056;-28
2022/02/11 07:56:31;;;;;;;1.08;0.90;;;16.10;64.20;;;;;;5069862;28;20059;-27
2022/02/11 07:58:56;;;;;;;0.88;0.70;;;16.10;63.80;;;;;;5069236;28;20048;-28
2022/02/11 08:01:22;;;;;;;1.58;1.10;;;16.20;64.00;;;;;;5061676;28;20106;-28
2022/02/11 08:03:49;;;;;;;2.35;0.90;;;16.20;64.00;;;;;;5055950;28;20501;-28
2022/02/11 08:06:15;;;;;;;0.70;0.63;;;16.10;63.90;;;;;;5064150;28;20534;-28
2022/02/11 08:08:40;;;;;;;1.60;1.00;;;16.10;64.10;;;;;;5063130;28;20502;-28
2022/02/11 08:11:06;;;;;;;2.25;0.90;;;16.10;64.10;;;;;;4705681;28;10000006;-27
2022/02/11 08:13:33;;;;;;;0.90;0.80;;;16.10;64.30;;;;;;5060603;28;20129;-27
2022/02/11 08:15:59;;;;;;;0.80;0.63;;;16.20;64.50;;;;;;5066606;28;20484;-27
2022/02/11 08:18:25;;;;;;;2.97;1.27;;;16.10;64.40;;;;;;5066487;28;20102;-29
2022/02/11 08:20:50;;;;;;;0.73;0.63;;;16.10;64.40;;;;;;5059633;28;20498;-27
2022/02/11 08:23:16;;;;;;;1.38;0.75;;;16.20;64.20;;;;;;5073034;28;20104;-28
2022/02/11 08:25:41;;;;;;;1.42;1.10;;;16.20;64.20;;;;;;5072107;28;20044;-25
2022/02/11 08:28:07;;;;;;;1.92;0.90;;;16.30;64.10;;;;;;5067453;28;20075;-27
2022/02/11 08:30:33;;;;;;;1.80;1.08;;;16.20;64.30;;;;;;5063297;28;20083;-27
2022/02/11 08:32:58;;;;;;;0.77;0.77;;;16.20;64.70;;;;;;5061729;28;20041;-27
2022/02/11 08:35:24;;;;;;;3.42;0.75;;;16.20;64.70;;;;;;5069212;28;20163;-27
2022/02/11 08:37:49;;;;;;;1.85;0.80;;;16.10;64.60;;;;;;5069035;28;20060;-27
2022/02/11 08:40:15;;;;;;;0.90;0.88;;;16.10;64.60;;;;;;5070842;28;20532;-27
2022/02/11 08:42:41;;;;;;;1.05;0.95;;;16.10;64.60;;;;;;5064809;28;20037;-29
2022/02/11 08:45:07;;;;;;;0.85;0.85;;;16.10;64.60;;;;;;5061772;28;20037;-28
2022/02/11 08:47:33;;;;;;;1.13;0.70;;;16.10;64.40;;;;;;5055397;28;20428;-28
2022/02/11 08:50:00;;;;;;;1.15;0.70;;;16.10;64.40;;;;;;5043246;28;20064;-27
2022/02/11 08:52:27;;;;;;;0.90;0.90;;;16.10;64.60;;;;;;5058300;28;20424;-28
2022/02/11 08:54:53;;;;;;;1.15;0.82;;;16.10;64.50;;;;;;5062317;28;20067;-27
2022/02/11 08:57:19;;;;;;;0.70;0.70;;;16.10;64.30;;;;;;5064012;28;20401;-27
2022/02/11 08:59:44;;;;;;;0.63;0.63;;;16.20;64.40;;;;;;5070943;28;20404;-25
2022/02/11 09:02:11;;;;;;;1.52;0.90;;;16.20;64.20;;;;;;5064037;28;20053;-27
2022/02/11 09:04:39;;;;;;;1.38;0.77;;;16.20;64.40;;;;;;5066274;28;20451;-27
2022/02/11 09:07:05;;;;;;;2.03;0.80;;;16.20;64.30;;;;;;5054261;28;20052;-27
2022/02/11 09:09:31;;;;;;;0.88;0.88;;;16.20;65.30;;;;;;5072849;28;20048;-27
2022/02/11 09:11:57;;;;;;;2.40;0.98;;;16.30;65.60;;;;;;5061074;28;20057;-27
2022/02/11 09:14:22;;;;;;;0.70;0.70;;;16.20;65.60;;;;;;5062416;28;20131;-28
2022/02/11 09:16:48;;;;;;;2.63;1.10;;;16.20;65.20;;;;;;5075391;28;20044;-29
2022/02/11 09:19:13;;;;;;;0.90;0.90;;;16.30;65.60;;;;;;5067800;28;20045;-27
2022/02/11 09:21:39;;;;;;;0.95;0.93;;;16.30;65.60;;;;;;5067732;28;20049;-32
2022/02/11 09:24:05;;;;;;;0.80;0.80;;;16.30;65.70;;;;;;5065884;28;20056;-28
2022/02/11 09:26:31;;;;;;;1.10;0.93;;;16.30;65.80;;;;;;5067769;28;20048;-27
2022/02/11 09:28:56;;;;;;;2.47;1.13;;;16.30;65.90;;;;;;5065509;28;20106;-28
2022/02/11 09:31:27;;;;;;;1.67;0.60;;;16.30;65.80;;;;;;5067900;28;20082;-27
2022/02/11 09:34:03;;;;;;;0.85;0.80;;;16.30;65.60;;;;;;5054890;28;20045;-28
2022/02/11 09:36:30;;;;;;;1.00;1.00;;;16.30;65.70;;;;;;5056087;28;20076;-27
2022/02/11 09:38:55;;;;;;;1.23;0.82;;;16.30;65.50;;;;;;5063177;28;20045;-28
2022/02/11 09:41:22;;;;;;;0.95;0.70;;;16.30;65.30;;;;;;5062153;28;20104;-28
2022/02/11 09:43:48;;;;;;;0.85;0.80;;;16.30;65.30;;;;;;5060460;28;20468;-27
2022/02/11 09:46:14;;;;;;;0.60;0.60;;;16.40;65.20;;;;;;5058039;28;20053;-27
2022/02/11 09:48:39;;;;;;;0.88;0.80;;;16.40;64.90;;;;;;5071080;28;20074;-27
2022/02/11 09:51:05;;;;;;;0.70;0.70;;;16.40;64.80;;;;;;5060755;28;20041;-27
2022/02/11 09:53:31;;;;;;;1.00;0.90;;;16.50;64.80;;;;;;5061128;28;20094;-27
2022/02/11 09:55:56;;;;;;;1.00;1.00;;;16.50;64.80;;;;;;5066065;28;20148;-27
2022/02/11 09:58:22;;;;;;;4.45;0.95;;;16.60;64.30;;;;;;5062929;28;20048;-27
2022/02/11 10:00:49;;;;;;;1.90;1.02;;;16.60;64.60;;;;;;5053267;28;20044;-27
2022/02/11 10:03:25;;;;;;;1.52;1.00;;;16.60;65.10;;;;;;5061770;28;20374;-28
2022/02/11 10:05:58;;;;;;;2.03;1.00;;;16.60;65.70;;;;;;5072062;28;20044;-27
2022/02/11 10:08:25;;;;;;;2.13;0.90;;;16.60;65.40;;;;;;5064848;28;20048;-27
2022/02/11 10:10:55;;;;;;;2.25;0.73;;;16.70;65.30;;;;;;5060389;28;20055;-27
2022/02/11 10:13:25;;;;;;;3.35;1.13;;;16.70;66.10;;;;;;5067945;28;20104;-27
2022/02/11 10:15:55;;;;;;;1.85;1.40;;;16.70;66.30;;;;;;5066365;28;20052;-28
2022/02/11 10:18:24;;;;;;;4.40;1.40;;;16.70;66.70;;;;;;5060991;28;20532;-27
2022/02/11 10:20:53;;;;;;;2.08;1.40;;;16.80;66.10;;;;;;5059109;28;20089;-26
2022/02/11 10:23:26;;;;;;;3.72;1.60;;;16.90;65.50;;;;;;5063924;28;20051;-27
2022/02/11 10:25:55;;;;;;;4.18;1.60;;;16.80;65.50;;;;;;5067970;28;20047;-28
2022/02/11 10:28:35;;;;;;;2.83;1.45;;;16.80;66.00;;;;;;5061140;28;20033;-27
2022/02/11 10:31:22;;;;;;;2.05;1.20;;;17.00;65.80;;;;;;5060397;28;20175;-26
2022/02/11 10:33:57;;;;;;;3.70;1.45;;;17.00;65.30;;;;;;5058294;28;20049;-27
2022/02/11 10:36:25;;;;;;;4.15;1.90;;;17.00;65.70;;;;;;4714181;28;9999981;-27
2022/02/11 10:39:13;;;;;;;3.13;1.90;;;17.00;66.00;;;;;;5059224;28;20292;-26
2022/02/11 10:41:45;;;;;;;4.80;1.52;;;17.00;65.60;;;;;;5050506;28;20135;-27
2022/02/11 10:44:15;;;;;;;3.20;1.33;;;17.10;65.80;;;;;;5063244;28;20445;-27
2022/02/11 10:46:51;;;;;;;2.65;1.85;;;17.10;66.00;;;;;;5055319;28;20105;-26
2022/02/11 10:49:17;;;;;;;7.43;1.38;;;17.10;65.80;;;;;;5035223;28;20073;-26
2022/02/11 10:51:44;;;;;;;5.25;1.42;;;17.20;65.60;;;;;;5054246;28;20041;-27
2022/02/11 10:54:25;;;;;;;1.90;0.95;;;17.30;65.30;;;;;;5062433;28;20142;-27
2022/02/11 10:56:55;;;;;;;3.15;1.42;;;17.30;65.40;;;;;;5067887;28;20087;-26
2022/02/11 10:59:28;;;;;;;3.35;1.20;;;17.30;65.40;;;;;;5062244;28;20102;-27
2022/02/11 11:01:55;;;;;;;1.98;1.10;;;17.30;65.10;;;;;;5056942;28;20077;-27
2022/02/11 11:04:21;;;;;;;2.53;1.30;;;17.30;65.50;;;;;;5067101;28;20602;-27
2022/02/11 11:06:47;;;;;;;1.48;1.10;;;17.30;65.20;;;;;;5063013;28;20655;-26
2022/02/11 11:09:14;;;;;;;1.52;1.23;;;17.40;65.80;;;;;;5061148;28;20128;-26
2022/02/11 11:11:43;;;;;;;2.35;1.33;;;17.40;66.30;;;;;;5065862;28;20575;-26
2022/02/11 11:14:09;;;;;;;1.63;1.23;;;17.40;66.80;;;;;;5057818;28;20448;-28
2022/02/11 11:16:35;;;;;;;2.05;1.20;;;17.40;66.70;;;;;;5061510;28;20056;-26
2022/02/11 11:19:00;;;;;;;2.58;1.30;;;17.40;66.30;;;;;;5054035;28;20110;-27
2022/02/11 11:21:28;;;;;;;1.25;1.10;;;17.40;66.10;;;;;;5060134;28;20532;-26
2022/02/11 11:23:55;;;;;;;4.15;1.05;;;17.50;66.10;;;;;;5039207;28;20417;-26
2022/02/11 11:26:37;;;;;;;1.88;1.40;;;17.50;65.90;;;;;;5057506;28;20055;-27
2022/02/11 11:29:08;;;;;;;2.83;1.20;;;17.50;65.80;;;;;;5060093;28;20527;-28
2022/02/11 11:31:34;;;;;;;2.78;1.17;;;17.50;65.90;;;;;;5056697;28;20080;-26
2022/02/11 11:34:14;;;;;;;1.63;1.08;;;17.50;65.80;;;;;;5066960;28;20129;-26
2022/02/11 11:36:59;;;;;;;2.42;1.30;;;17.50;66.20;;;;;;5059837;28;20102;-27
2022/02/11 11:39:25;;;;;;;1.80;1.00;;;17.50;66.10;;;;;;5061159;28;20056;-26
2022/02/11 11:42:17;;;;;;;1.65;1.23;;;17.50;67.20;;;;;;5067194;28;20819;-27
2022/02/11 11:44:53;;;;;;;1.88;1.00;;;17.60;66.70;;;;;;5064578;28;20106;-26
2022/02/11 11:47:27;;;;;;;1.98;1.20;;;17.60;66.50;;;;;;5064235;28;20060;-26
2022/02/11 11:49:53;;;;;;;1.92;1.02;;;17.60;66.90;;;;;;5052809;28;20053;-26
2022/02/11 11:52:20;;;;;;;2.15;1.10;;;17.60;66.90;;;;;;5065423;28;20083;-26
2022/02/11 11:54:46;;;;;;;1.10;1.00;;;17.60;66.60;;;;;;5062695;28;20530;-26
2022/02/11 11:57:14;;;;;;;9.05;1.00;;;17.60;66.70;;;;;;5059426;28;20051;-27
2022/02/11 11:59:56;;;;;;;2.90;1.30;;;17.60;66.60;;;;;;5060019;28;20036;-27
2022/02/11 12:02:31;;;;;;;1.13;1.00;;;17.60;66.70;;;;;;5048293;28;20047;-27
2022/02/11 12:04:58;;;;;;;2.53;1.45;;;17.70;66.70;;;;;;5064285;28;20049;-27
2022/02/11 12:07:24;;;;;;;4.30;1.33;;;17.70;66.60;;;;;;5065906;28;20044;-27
2022/02/11 12:09:52;;;;;;;1.90;1.35;;;17.80;66.60;;;;;;5065035;28;20049;-26
2022/02/11 12:12:22;;;;;;;2.70;1.02;;;17.80;66.30;;;;;;5063565;28;20036;-27
2022/02/11 12:14:50;;;;;;;1.50;1.20;;;17.70;66.20;;;;;;5066368;28;20067;-27
2022/02/11 12:17:16;;;;;;;1.20;1.08;;;17.70;66.10;;;;;;5066654;28;20041;-27
2022/02/11 12:19:44;;;;;;;2.08;1.20;;;17.80;65.90;;;;;;5055576;28;20418;-27
2022/02/11 12:22:10;;;;;;;2.30;1.20;;;17.80;65.70;;;;;;5061421;28;20083;-27
2022/02/11 12:27:33;;;;;;;;;;;17.90;65.70;;;;;;5051601;28;20135;-27
2022/02/11 12:30:05;;;;;;;1.10;1.00;;;17.80;65.60;;;;;;5068571;28;19970;-27
2022/02/11 12:32:37;;;;;;;0.80;0.80;;;17.90;65.60;;;;;;5064479;28;20814;-27
2022/02/11 12:35:03;;;;;;;1.75;1.00;;;17.80;65.30;;;;;;5074701;28;20048;-27
2022/02/11 12:37:30;;;;;;;3.50;0.75;;;17.80;65.30;;;;;;5059320;28;20129;-27
2022/02/11 12:40:10;;;;;;;2.85;1.15;;;17.90;65.40;;;;;;5066006;28;20044;-24
2022/02/11 12:42:39;;;;;;;1.17;1.00;;;17.90;65.40;;;;;;5071409;28;20041;-27
2022/02/11 12:45:06;;;;;;;1.15;1.05;;;17.90;65.30;;;;;;5051162;28;20041;-28
2022/02/11 12:47:33;;;;;;;2.20;1.10;;;17.90;65.30;;;;;;5066616;28;20041;-27
2022/02/11 12:50:00;;;;;;;1.25;0.90;;;17.90;65.30;;;;;;5061423;28;20045;-27
2022/02/11 12:52:27;;;;;;;4.10;0.82;;;17.90;65.30;;;;;;5052721;28;20451;-27
2022/02/11 12:54:57;;;;;;;3.25;1.20;;;17.80;65.30;;;;;;5070485;28;20057;-28
2022/02/11 12:57:22;;;;;;;1.55;0.93;;;17.80;65.10;;;;;;5059480;28;20100;-26
2022/02/11 12:59:49;;;;;;;4.78;1.33;;;17.90;65.20;;;;;;5070818;28;20044;-27
2022/02/11 13:02:29;;;;;;;1.42;1.20;;;17.90;65.20;;;;;;5067312;28;20532;-27
2022/02/11 13:05:06;;;;;;;1.05;1.05;;;17.90;65.20;;;;;;5066773;28;20044;-27
2022/02/11 13:07:32;;;;;;;1.55;1.35;;;17.90;65.10;;;;;;5073436;28;20052;-27
2022/02/11 13:09:58;;;;;;;1.95;1.40;;;17.90;65.00;;;;;;5067124;28;20059;-27
2022/02/11 13:12:23;;;;;;;1.45;1.25;;;17.90;64.80;;;;;;5061289;28;20453;-27
2022/02/11 13:14:49;;;;;;;3.92;1.73;;;17.90;65.30;;;;;;5039663;28;20045;-27
2022/02/11 13:17:14;;;;;;;2.67;1.35;;;17.90;64.90;;;;;;5048705;28;20040;-26
2022/02/11 13:19:40;;;;;;;4.40;1.67;;;17.90;65.20;;;;;;5056757;28;20055;-27
2022/02/11 13:22:06;;;;;;;1.67;1.50;;;17.90;65.00;;;;;;5061292;28;20044;-27
2022/02/11 13:24:32;;;;;;;4.18;1.48;;;17.90;65.00;;;;;;5059175;28;20575;-27
2022/02/11 13:27:00;;;;;;;2.13;1.65;;;17.90;65.00;;;;;;5047078;28;20801;-27
2022/02/11 13:29:26;;;;;;;5.20;1.60;;;17.90;65.00;;;;;;5044255;28;20338;-27
2022/02/11 13:31:54;;;;;;;2.17;1.85;;;17.90;65.20;;;;;;5060199;28;20113;-26
2022/02/11 13:34:19;;;;;;;4.03;1.40;;;17.90;65.10;;;;;;5060822;28;20445;-27
2022/02/11 13:36:48;;;;;;;3.90;1.80;;;17.80;65.10;;;;;;5067014;28;20527;-27
2022/02/11 13:39:28;;;;;;;3.65;1.80;;;17.90;65.10;;;;;;5069910;28;20056;-26
2022/02/11 13:41:54;;;;;;;3.17;2.00;;;17.80;64.90;;;;;;5064761;28;20036;-26
2022/02/11 13:44:21;;;;;;;2.53;1.55;;;17.90;65.00;;;;;;5058185;28;20072;-27
2022/02/11 13:46:53;;;;;;;2.28;1.50;;;17.90;65.00;;;;;;5067653;28;20443;-26
2022/02/11 13:49:21;;;;;;;1.83;1.60;;;17.80;64.90;;;;;;5060071;28;20040;-26
2022/02/11 13:53:01;;;;;;;1.60;1.30;;;17.90;65.00;;;;;;5068625;28;20476;-26
2022/02/11 13:55:03;;;;;;;4.18;1.50;;;17.90;64.90;;;;;;5060907;28;20102;-26
2022/02/11 13:57:29;;;;;;;1.92;1.17;;;17.80;64.80;;;;;;5054339;28;20064;-29
2022/02/11 13:59:54;;;;;;;2.50;1.40;;;17.80;64.90;;;;;;5058454;28;20556;-26
2022/02/11 14:02:23;;;;;;;1.30;1.13;;;17.80;64.90;;;;;;5062063;28;20056;-26
2022/02/11 14:05:02;;;;;;;2.08;1.25;;;17.80;64.70;;;;;;5066208;28;20170;-27
2022/02/11 14:07:27;;;;;;;5.07;1.30;;;17.80;64.60;;;;;;5062658;28;20672;-27
2022/02/11 14:09:53;;;;;;;1.45;1.05;;;17.80;64.60;;;;;;5068950;28;20051;-27
2022/02/11 14:12:18;;;;;;;1.65;1.52;;;17.80;64.50;;;;;;5070168;28;20048;-27
2022/02/11 14:14:55;;;;;;;2.25;1.27;;;17.80;64.60;;;;;;5068088;28;20067;-27
2022/02/11 14:17:21;;;;;;;2.90;1.20;;;17.80;64.50;;;;;;5060212;28;20138;-27
2022/02/11 14:19:47;;;;;;;1.30;1.20;;;17.80;64.40;;;;;;5071448;28;20056;-27
2022/02/11 14:22:12;;;;;;;1.65;1.33;;;17.80;64.50;;;;;;5062629;28;20047;-27
2022/02/11 14:24:38;;;;;;;1.67;1.00;;;17.80;64.40;;;;;;5071609;28;20048;-27
2022/02/11 14:27:04;;;;;;;2.53;1.15;;;17.80;64.50;;;;;;5070283;28;20500;-26
2022/02/11 14:29:29;;;;;;;1.90;1.02;;;17.80;64.50;;;;;;5067105;28;20052;-27
2022/02/11 14:31:55;;;;;;;3.00;1.15;;;17.80;64.50;;;;;;5070425;28;20075;-26
2022/02/11 14:34:21;;;;;;;1.30;1.20;;;17.80;64.60;;;;;;5070344;28;20501;-26
2022/02/11 14:36:46;;;;;;;2.35;1.08;;;17.80;64.60;;;;;;5081734;28;20049;-26
2022/02/11 14:39:14;;;;;;;1.25;0.95;;;17.80;64.60;;;;;;5071976;28;20056;-27
2022/02/11 14:41:47;;;;;;;2.85;0.90;;;17.80;64.70;;;;;;5069186;28;20044;-27
2022/02/11 14:44:14;;;;;;;2.53;1.13;;;17.80;64.70;;;;;;5075325;28;20049;-26
2022/02/11 14:46:40;;;;;;;2.63;0.90;;;17.80;64.70;;;;;;5076571;28;20068;-27
2022/02/11 14:49:05;;;;;;;1.70;1.05;;;17.80;64.60;;;;;;5066193;28;20079;-26
2022/02/11 14:51:34;;;;;;;1.17;1.00;;;17.80;64.60;;;;;;5072649;28;20068;-27
2022/02/11 14:54:05;;;;;;;1.58;0.70;;;17.80;64.70;;;;;;5074553;28;20449;-26
2022/02/11 14:56:31;;;;;;;3.47;1.40;;;17.80;64.80;;;;;;5058859;28;20051;-26
2022/02/11 14:58:57;;;;;;;5.18;0.98;;;17.80;64.90;;;;;;5068336;28;20044;-27
2022/02/11 15:01:23;;;;;;;2.50;1.20;;;17.70;64.80;;;;;;5066055;28;20048;-27
2022/02/11 15:03:49;;;;;;;1.83;1.15;;;17.80;64.80;;;;;;5071111;28;20516;-27
2022/02/11 15:06:14;;;;;;;1.55;1.27;;;17.80;64.80;;;;;;5068164;28;20405;-27
2022/02/11 15:08:40;;;;;;;4.07;2.00;;;17.80;65.00;;;;;;4714567;28;10000154;-26
2022/02/11 15:11:06;;;;;;;3.70;2.53;;;17.80;64.80;;;;;;5070600;28;20076;-26
2022/02/11 15:13:31;;;;;;;3.75;2.70;;;17.70;64.80;;;;;;5064415;28;20546;-26
2022/02/11 15:15:57;;;;;;;20.25;11.05;;;17.70;64.80;;;;;;5067746;28;20047;-26
2022/02/11 15:18:22;;;;;;;40.17;21.65;;;17.70;65.00;;;;;;5064741;28;20574;-27
2022/02/11 15:20:48;;;;;;;43.20;21.70;;;17.80;64.90;;;;;;5067795;28;20047;-26
2022/02/11 15:23:13;;;;;;;38.40;21.52;;;17.80;64.80;;;;;;5070122;28;20044;-26
2022/02/11 15:25:39;;;;;;;43.67;21.95;;;17.70;64.70;;;;;;5070867;28;20046;-26
2022/02/11 15:28:05;;;;;;;52.30;22.45;;;17.80;64.80;;;;;;5074784;28;20523;-23
2022/02/11 15:30:31;;;;;;;41.10;23.58;;;17.70;64.60;;;;;;5072268;28;20060;-26
2022/02/11 15:32:57;;;;;;;38.97;22.80;;;17.70;64.60;;;;;;5072372;28;20048;-26
2022/02/11 15:35:24;;;;;;;38.78;22.20;;;17.70;65.50;;;;;;5074823;28;20037;-27
2022/02/11 15:37:55;;;;;;;40.20;22.58;;;17.70;64.50;;;;;;5075058;28;20083;-27
2022/02/11 15:40:22;;;;;;;39.45;21.75;;;17.70;64.30;;;;;;5072461;28;20041;-26
2022/02/11 15:42:48;;;;;;;44.40;22.65;;;17.70;64.40;;;;;;5066931;28;20443;-27
2022/02/11 15:45:14;;;;;;;33.78;20.25;;;17.60;64.40;;;;;;5067837;28;20041;-27
2022/02/11 15:47:41;;;;;;;36.30;20.50;;;17.60;64.40;;;;;;5070556;28;20098;-26
2022/02/11 15:50:07;;;;;;;35.50;21.23;;;17.60;64.50;;;;;;5070594;28;20119;-27
2022/02/11 15:52:32;;;;;;;37.35;20.75;;;17.60;64.30;;;;;;5069782;28;20087;-26
2022/02/11 15:54:58;;;;;;;35.05;19.96;;;17.60;64.40;;;;;;4717346;28;10000605;-27
2022/02/11 15:57:24;;;;;;;36.03;18.92;;;17.60;64.20;;;;;;5063162;28;20057;-26
2022/02/11 15:59:50;;;;;;;33.70;18.52;;;17.50;64.00;;;;;;5067536;28;20564;-27
2022/02/11 16:02:16;;;;;;;37.55;19.25;;;17.50;64.00;;;;;;5065371;28;20132;-26
2022/02/11 16:04:42;;;;;;;36.13;17.73;;;17.50;64.00;;;;;;5063751;28;20140;-26
2022/02/11 16:07:08;;;;;;;32.03;18.48;;;17.50;64.20;;;;;;5059291;28;20056;-27
2022/02/11 16:09:33;;;;;;;33.45;17.65;;;17.50;64.30;;;;;;5070602;28;20057;-26
2022/02/11 16:12:00;;;;;;;29.38;16.73;;;17.50;64.10;;;;;;5057241;28;21629;-26
2022/02/11 16:14:26;;;;;;;27.58;16.60;;;17.50;64.00;;;;;;5065951;28;20045;-26
2022/02/11 16:16:52;;;;;;;28.02;17.65;;;17.50;64.00;;;;;;5060781;28;20051;-26
2022/02/11 16:19:18;;;;;;;27.15;15.68;;;17.60;63.90;;;;;;5078053;28;20055;-26
2022/02/11 16:21:44;;;;;;;26.95;15.38;;;17.60;64.10;;;;;;5059701;28;20080;-26
2022/02/11 16:24:09;;;;;;;27.42;17.20;;;17.50;64.00;;;;;;5058889;28;20075;-26
2022/02/11 16:26:35;;;;;;;26.85;16.13;;;17.60;64.20;;;;;;5067372;28;20117;-26
2022/02/11 16:29:02;;;;;;;27.42;15.85;;;17.60;64.20;;;;;;5054819;28;20060;-27
2022/02/11 16:31:28;;;;;;;29.58;15.07;;;17.50;64.10;;;;;;5058413;28;20056;-26
2022/02/11 16:33:55;;;;;;;26.00;14.80;;;17.50;64.20;;;;;;5056790;28;20060;-26
2022/02/11 16:36:22;;;;;;;22.92;14.43;;;17.50;64.30;;;;;;5058309;28;20045;-26